KBAD/BAD METAR and TAF weather

Enter ICAO airport designator
Station Type Date Time Source
KBAD METAR 2019/02/21 10:56 UTC NOAA

KBAD 211056Z AUTO 05004KT 10SM SCT095 05/03 A3003 RMK AO2 SLP172 T00460034


Station Type Date Time Source
KBAD Decoded METAR 2019/02/21 10:56 UTC NOAA

Barksdale Air Force Base, LA, United States (KBAD) 32-30N 093-40W
Feb 21, 2019 - 05:56 AM EST / 2019.02.21 1056 UTC
Wind: from the NE (050 degrees) at 5 MPH (4 KT):0
Visibility: 10 mile(s):0
Sky conditions: partly cloudy
Temperature: 40.3 F (4.6 C)
Dew Point: 38.1 F (3.4 C)
Relative Humidity: 91%
Pressure (altimeter): 30.03 in. Hg (1016 hPa)
ob: KBAD 211056Z AUTO 05004KT 10SM SCT095 05/03 A3003 RMK AO2 SLP172 T00460034
cycle: 11

Station Type Date Time Source
KBAD TAF 2019/02/21 10:08 UTC NOAA

TAF KBAD 211000Z 2110/2216 06008KT 9999 SCT090 BKN210 QNH3002INS
BECMG 2115/2116 04012G18KT 8000 -SHRA VCTS BKN020CB QNH3000INS
BECMG 2200/2201 06010KT 9999 NSW OVC010 QNH3000INS TX10/2122Z TN04/2111Z


Example: see airport list